Time;durP1;ratioP1;P1;durP2;ratioP2;P2;SDS_P1;SDS_P2;PMS_P1;PMS_P2;Temp;Humidity;BMP_temperature;BMP_pressure;BME280_temperature;BME280_humidity;BME280_pressure;Samples;Min_cycle;Max_cycle;Signal;HPM_P1;HPM_P2
2022/08/31 00:06:21;;;;;;;0.53;0.20;;;10.70;99.90;;;;;;5035023;28;20404;-84
2022/08/31 00:08:53;;;;;;;0.40;0.20;;;10.80;99.90;;;;;;5034868;28;20984;-85
2022/08/31 00:11:26;;;;;;;0.60;0.30;;;10.80;99.90;;;;;;5034994;28;20839;-82
2022/08/31 00:14:02;;;;;;;0.67;0.10;;;10.70;99.90;;;;;;5041874;28;20533;-84
2022/08/31 00:16:31;;;;;;;0.40;0.20;;;10.60;99.90;;;;;;5034451;28;20567;-85
2022/08/31 00:18:59;;;;;;;1.30;0.20;;;10.60;99.90;;;;;;5042420;28;20503;-87
2022/08/31 00:21:26;;;;;;;0.60;0.20;;;10.50;99.90;;;;;;5042955;28;20413;-83
2022/08/31 00:23:52;;;;;;;1.30;0.20;;;10.60;99.90;;;;;;5044425;28;20514;-84
2022/08/31 00:26:19;;;;;;;0.40;0.20;;;10.50;99.90;;;;;;5056152;28;20461;-86
2022/08/31 00:28:45;;;;;;;1.03;0.20;;;10.50;99.90;;;;;;5032691;28;20940;-87
2022/08/31 00:31:11;;;;;;;0.50;0.20;;;10.60;99.90;;;;;;5046664;28;20410;-87
2022/08/31 00:33:37;;;;;;;0.77;0.30;;;10.60;99.90;;;;;;5049565;28;20188;-86
2022/08/31 00:36:06;;;;;;;1.37;0.20;;;10.50;99.90;;;;;;5043525;28;20175;-84
2022/08/31 00:38:31;;;;;;;0.30;0.20;;;10.50;99.90;;;;;;5042143;28;20491;-88
2022/08/31 00:40:57;;;;;;;0.30;0.20;;;10.40;99.90;;;;;;5045595;28;20417;-85
2022/08/31 00:43:44;;;;;;;0.60;0.20;;;10.50;99.90;;;;;;5043020;28;20280;-86
2022/08/31 00:46:13;;;;;;;0.37;0.20;;;10.40;99.90;;;;;;5051933;28;20854;-85
2022/08/31 00:48:49;;;;;;;0.50;0.20;;;10.40;99.90;;;;;;5053806;28;20415;-86
2022/08/31 00:51:14;;;;;;;0.43;0.20;;;10.40;99.90;;;;;;5053912;28;20957;-84
2022/08/31 00:53:40;;;;;;;0.40;0.20;;;10.40;99.90;;;;;;5054154;28;20419;-84
2022/08/31 00:56:06;;;;;;;0.90;0.20;;;10.40;99.90;;;;;;5053972;28;20223;-83
2022/08/31 00:58:32;;;;;;;1.07;0.20;;;10.40;99.90;;;;;;5053905;28;20895;-87
2022/08/31 01:00:59;;;;;;;0.40;0.20;;;10.50;99.90;;;;;;5036003;28;20430;-86
2022/08/31 01:03:25;;;;;;;0.30;0.20;;;10.40;99.90;;;;;;5053400;28;20778;-83
2022/08/31 01:05:51;;;;;;;1.07;0.30;;;10.50;99.90;;;;;;5053715;28;20428;-85
2022/08/31 01:08:17;;;;;;;1.13;0.20;;;10.40;99.90;;;;;;5053825;28;20179;-83
2022/08/31 01:10:43;;;;;;;0.60;0.20;;;10.40;99.90;;;;;;5053746;28;20455;-87
2022/08/31 01:13:11;;;;;;;0.30;0.10;;;10.40;99.90;;;;;;5035752;28;20528;-82
2022/08/31 01:15:40;;;;;;;0.40;0.20;;;10.30;99.90;;;;;;5053419;28;21159;-82
2022/08/31 01:18:07;;;;;;;0.30;0.20;;;10.30;99.90;;;;;;5053060;28;20468;-82
2022/08/31 01:21:05;;;;;;;0.83;0.30;;;10.30;99.90;;;;;;5053466;28;20421;-81
2022/08/31 01:23:37;;;;;;;1.60;0.20;;;10.20;99.90;;;;;;5052711;28;20446;-82
2022/08/31 01:26:04;;;;;;;1.00;0.20;;;10.10;99.90;;;;;;5053619;28;20415;-82
2022/08/31 01:28:30;;;;;;;0.30;0.20;;;10.20;99.90;;;;;;5053514;28;20452;-82
2022/08/31 01:31:08;;;;;;;0.50;0.20;;;10.20;99.90;;;;;;5053513;28;20410;-84
2022/08/31 01:33:36;;;;;;;0.30;0.30;;;10.20;99.90;;;;;;5051916;28;20258;-82
2022/08/31 01:36:04;;;;;;;0.73;0.20;;;10.30;99.90;;;;;;5053126;28;20419;-82
2022/08/31 01:38:31;;;;;;;0.30;0.10;;;10.20;99.90;;;;;;5037292;28;20488;-87
2022/08/31 01:41:00;;;;;;;0.60;0.20;;;10.20;99.90;;;;;;5053119;28;20409;-83
2022/08/31 01:43:26;;;;;;;0.40;0.10;;;10.20;99.90;;;;;;5053118;28;20415;-82
2022/08/31 01:45:52;;;;;;;0.67;0.40;;;10.10;99.90;;;;;;5053053;28;20491;-85
2022/08/31 01:48:19;;;;;;;0.73;0.20;;;10.10;99.90;;;;;;5052866;28;20492;-83
2022/08/31 01:50:45;;;;;;;0.50;0.20;;;9.90;99.90;;;;;;5052940;28;20535;-86
2022/08/31 01:53:11;;;;;;;1.03;0.20;;;9.90;99.90;;;;;;5053082;28;20428;-83
2022/08/31 01:55:37;;;;;;;0.30;0.20;;;9.90;99.90;;;;;;5052926;28;20408;-83
2022/08/31 01:58:03;;;;;;;1.10;0.20;;;9.90;99.90;;;;;;5052995;28;20467;-82
2022/08/31 02:00:29;;;;;;;0.50;0.30;;;9.90;99.90;;;;;;5053046;28;20495;-87
2022/08/31 02:02:59;;;;;;;0.53;0.20;;;9.90;99.90;;;;;;5052072;28;20525;-81
2022/08/31 02:05:24;;;;;;;0.30;0.20;;;9.90;99.90;;;;;;5052934;28;20444;-81
2022/08/31 02:07:53;;;;;;;0.50;0.30;;;9.90;99.90;;;;;;5052809;28;20437;-82
2022/08/31 02:10:18;;;;;;;0.40;0.20;;;9.90;99.90;;;;;;5052817;28;20204;-85
2022/08/31 02:12:44;;;;;;;2.20;0.10;;;9.80;99.90;;;;;;5052855;28;20407;-83
2022/08/31 02:15:13;;;;;;;0.50;0.20;;;9.70;99.90;;;;;;5052691;28;20227;-83
2022/08/31 02:17:39;;;;;;;0.50;0.30;;;9.70;99.90;;;;;;5052456;28;20606;-80
2022/08/31 02:20:08;;;;;;;0.60;0.20;;;9.70;99.90;;;;;;5052731;28;20454;-81
2022/08/31 02:22:34;;;;;;;0.73;0.20;;;9.70;99.90;;;;;;5035036;28;20181;-82
2022/08/31 02:24:59;;;;;;;0.83;0.20;;;9.70;99.90;;;;;;5052923;28;20760;-82
2022/08/31 02:27:25;;;;;;;0.70;0.20;;;9.70;99.90;;;;;;5034927;28;20164;-81
2022/08/31 02:29:51;;;;;;;0.40;0.20;;;9.70;99.90;;;;;;5034771;28;20181;-81
2022/08/31 02:32:16;;;;;;;0.47;0.30;;;9.70;99.90;;;;;;5034047;28;20187;-82
2022/08/31 02:34:43;;;;;;;0.30;0.20;;;9.70;99.90;;;;;;5045069;28;20234;-90
2022/08/31 02:37:09;;;;;;;0.50;0.20;;;9.70;99.90;;;;;;5046737;28;20176;-89
2022/08/31 02:39:34;;;;;;;0.57;0.20;;;9.60;99.90;;;;;;5047751;28;20486;-88
2022/08/31 02:42:00;;;;;;;0.40;0.20;;;9.50;99.90;;;;;;5043706;28;20224;-89
2022/08/31 02:44:25;;;;;;;0.60;0.30;;;9.60;99.90;;;;;;5052061;28;20181;-88
2022/08/31 02:46:51;;;;;;;0.40;0.30;;;9.60;99.90;;;;;;5044564;28;20704;-87
2022/08/31 02:49:17;;;;;;;0.50;0.20;;;9.50;99.90;;;;;;5045519;28;20181;-87
2022/08/31 02:51:43;;;;;;;0.70;0.27;;;9.50;99.90;;;;;;5043001;28;20232;-85
2022/08/31 02:54:09;;;;;;;0.70;0.20;;;9.50;99.90;;;;;;5049468;28;20178;-85
2022/08/31 02:56:35;;;;;;;0.43;0.20;;;9.50;99.90;;;;;;5043492;28;20448;-85
2022/08/31 02:59:01;;;;;;;0.40;0.20;;;9.50;99.90;;;;;;5044780;28;20911;-81
2022/08/31 03:01:27;;;;;;;0.40;0.20;;;9.50;99.90;;;;;;5051640;28;20416;-79
2022/08/31 03:03:53;;;;;;;0.40;0.20;;;9.40;99.90;;;;;;5042932;28;20178;-82
2022/08/31 03:06:19;;;;;;;0.80;0.20;;;9.40;99.90;;;;;;5052358;28;20440;-85
2022/08/31 03:08:46;;;;;;;0.53;0.20;;;9.40;99.90;;;;;;5050989;28;20971;-81
2022/08/31 03:11:11;;;;;;;0.50;0.20;;;9.50;99.90;;;;;;5034439;28;20832;-82
2022/08/31 03:13:38;;;;;;;0.40;0.20;;;9.50;99.90;;;;;;5052250;28;20420;-82
2022/08/31 03:16:08;;;;;;;0.37;0.20;;;9.60;99.90;;;;;;5037621;28;20592;-81
2022/08/31 03:18:33;;;;;;;1.27;0.20;;;9.60;99.90;;;;;;5055355;28;20465;-81
2022/08/31 03:20:59;;;;;;;0.40;0.20;;;9.60;99.90;;;;;;5037838;28;20426;-81
2022/08/31 03:23:25;;;;;;;0.50;0.27;;;9.70;99.90;;;;;;5055750;28;20173;-81
2022/08/31 03:25:50;;;;;;;0.50;0.20;;;9.60;99.90;;;;;;5055659;28;20253;-84
2022/08/31 03:28:16;;;;;;;1.70;0.20;;;9.60;99.90;;;;;;5055658;28;20546;-81
2022/08/31 03:30:42;;;;;;;0.70;0.27;;;9.50;99.90;;;;;;5055474;28;20177;-82
2022/08/31 03:33:07;;;;;;;1.10;0.40;;;9.50;99.90;;;;;;5055258;28;20300;-86
2022/08/31 03:35:34;;;;;;;0.77;0.20;;;9.40;99.90;;;;;;5055557;28;20255;-81
2022/08/31 03:38:01;;;;;;;1.00;0.20;;;9.50;99.90;;;;;;5055326;28;20209;-81
2022/08/31 03:40:27;;;;;;;0.40;0.20;;;9.40;99.90;;;;;;5055353;28;20418;-85
2022/08/31 03:42:52;;;;;;;0.57;0.27;;;9.40;99.90;;;;;;5055211;28;20901;-84
2022/08/31 03:45:18;;;;;;;0.73;0.20;;;9.40;99.90;;;;;;5055062;28;20230;-81
2022/08/31 03:47:44;;;;;;;0.60;0.20;;;9.40;99.90;;;;;;5054795;28;20529;-81
2022/08/31 03:50:09;;;;;;;0.50;0.30;;;9.40;99.90;;;;;;5055036;28;20416;-85
2022/08/31 03:52:37;;;;;;;1.13;0.20;;;9.40;99.90;;;;;;5037251;28;20229;-80
2022/08/31 03:55:04;;;;;;;0.40;0.30;;;9.40;99.90;;;;;;5055189;28;20169;-81
2022/08/31 03:57:29;;;;;;;0.50;0.20;;;9.50;99.90;;;;;;5054916;28;20975;-81
2022/08/31 03:59:56;;;;;;;0.60;0.20;;;9.50;99.90;;;;;;5051435;28;20436;-84
2022/08/31 04:02:22;;;;;;;1.60;0.30;;;9.50;99.90;;;;;;5034621;28;20260;-81
2022/08/31 04:04:51;;;;;;;1.03;0.23;;;9.50;99.90;;;;;;5034947;28;20416;-82
2022/08/31 04:07:17;;;;;;;1.10;0.20;;;9.40;99.90;;;;;;5034963;28;20408;-82
2022/08/31 04:09:43;;;;;;;0.93;0.23;;;9.40;99.90;;;;;;5034820;28;20414;-81
2022/08/31 04:12:09;;;;;;;0.40;0.20;;;9.40;99.90;;;;;;5034704;28;20419;-85
2022/08/31 04:14:40;;;;;;;1.60;0.20;;;9.40;99.90;;;;;;5053788;28;21087;-80
2022/08/31 04:17:09;;;;;;;0.80;0.30;;;9.40;99.90;;;;;;5036562;28;20263;-86
2022/08/31 04:19:34;;;;;;;0.60;0.30;;;9.40;99.90;;;;;;5054453;28;20508;-87
2022/08/31 04:22:00;;;;;;;0.43;0.20;;;9.30;99.90;;;;;;5054368;28;20443;-81
2022/08/31 04:24:26;;;;;;;0.70;0.30;;;9.30;99.90;;;;;;5036759;28;20202;-81
2022/08/31 04:26:52;;;;;;;0.50;0.20;;;9.40;99.90;;;;;;5053816;28;20676;-85
2022/08/31 04:29:22;;;;;;;0.60;0.20;;;9.40;99.90;;;;;;5054371;28;20180;-80
2022/08/31 04:31:48;;;;;;;0.73;0.40;;;9.50;99.90;;;;;;5054028;28;20409;-81
2022/08/31 04:34:14;;;;;;;0.97;0.20;;;9.50;99.90;;;;;;5054209;28;20424;-82
2022/08/31 04:36:39;;;;;;;1.00;0.23;;;9.50;99.90;;;;;;5036390;28;20173;-83
2022/08/31 04:39:06;;;;;;;0.50;0.20;;;9.50;99.90;;;;;;5054080;28;20820;-80
2022/08/31 04:41:35;;;;;;;0.90;0.20;;;9.50;99.90;;;;;;5035981;28;20546;-80
2022/08/31 04:44:03;;;;;;;1.03;0.50;;;9.50;99.90;;;;;;5036325;28;20843;-80
2022/08/31 04:46:30;;;;;;;1.30;0.20;;;9.40;99.90;;;;;;5053958;28;20439;-80
2022/08/31 04:48:56;;;;;;;0.50;0.20;;;9.40;99.90;;;;;;5053641;28;20482;-81
2022/08/31 04:51:25;;;;;;;0.60;0.20;;;9.40;99.90;;;;;;5054202;28;20462;-81
2022/08/31 04:53:51;;;;;;;1.07;0.40;;;9.50;99.90;;;;;;5051151;28;20475;-82
2022/08/31 04:56:24;;;;;;;0.87;0.20;;;9.50;99.90;;;;;;5038678;28;20421;-82
2022/08/31 04:59:11;;;;;;;0.83;0.27;;;9.60;99.90;;;;;;5033689;28;20467;-84
2022/08/31 05:01:40;;;;;;;0.77;0.40;;;9.60;99.90;;;;;;5033058;28;20432;-80
2022/08/31 05:04:07;;;;;;;0.50;0.20;;;9.70;99.90;;;;;;5033661;28;20435;-81
2022/08/31 05:06:35;;;;;;;1.30;0.20;;;9.70;99.90;;;;;;5033660;28;20447;-81
2022/08/31 05:09:05;;;;;;;1.10;0.20;;;9.70;99.90;;;;;;5033563;28;20765;-80
2022/08/31 05:11:31;;;;;;;0.60;0.20;;;9.80;99.90;;;;;;5035719;28;20890;-81
2022/08/31 05:13:58;;;;;;;1.17;0.40;;;9.90;99.90;;;;;;5043242;28;20468;-81
2022/08/31 05:16:29;;;;;;;0.47;0.20;;;10.00;99.90;;;;;;5041814;28;20581;-84
2022/08/31 05:18:56;;;;;;;0.50;0.30;;;10.20;99.90;;;;;;5040215;28;20525;-81
2022/08/31 05:21:33;;;;;;;0.50;0.30;;;10.30;99.90;;;;;;5025751;28;20503;-80
2022/08/31 05:24:08;;;;;;;1.30;0.40;;;10.40;99.90;;;;;;5040113;28;20443;-82
2022/08/31 05:26:37;;;;;;;0.40;0.30;;;10.50;99.90;;;;;;5035823;28;20413;-83
2022/08/31 05:29:08;;;;;;;0.70;0.30;;;10.60;99.90;;;;;;5032083;28;20910;-82
2022/08/31 05:31:37;;;;;;;0.50;0.20;;;10.80;99.90;;;;;;5031693;28;20422;-82
2022/08/31 05:34:04;;;;;;;0.57;0.20;;;11.30;99.90;;;;;;5023761;28;20424;-83
2022/08/31 05:36:29;;;;;;;0.50;0.40;;;12.60;99.90;;;;;;5034375;28;20823;-82
2022/08/31 05:38:55;;;;;;;0.63;0.33;;;13.60;99.90;;;;;;5050929;28;20584;-83
2022/08/31 05:41:25;;;;;;;0.53;0.30;;;14.20;99.90;;;;;;5053091;28;20227;-83
2022/08/31 05:43:52;;;;;;;0.83;0.20;;;14.70;99.90;;;;;;5018897;28;20173;-83
2022/08/31 05:46:18;;;;;;;0.50;0.30;;;15.10;31.40;;;;;;5053482;28;20420;-85
2022/08/31 05:48:44;;;;;;;0.60;0.20;;;15.70;1.00;;;;;;5052735;28;20417;-82
2022/08/31 05:51:13;;;;;;;0.40;0.20;;;16.20;99.90;;;;;;5053372;28;20201;-86
2022/08/31 05:53:39;;;;;;;0.63;0.23;;;16.80;1.00;;;;;;5052525;28;20470;-83
2022/08/31 05:56:11;;;;;;;0.60;0.20;;;17.30;21.20;;;;;;5052961;28;20430;-82
2022/08/31 05:58:41;;;;;;;1.17;0.30;;;18.00;1.00;;;;;;5052220;28;20465;-84
2022/08/31 06:01:23;;;;;;;1.80;0.30;;;18.40;1.00;;;;;;5034522;28;20834;-82
2022/08/31 06:03:49;;;;;;;0.30;0.20;;;19.20;1.00;;;;;;5051851;28;20420;-83
2022/08/31 06:06:16;;;;;;;0.40;0.20;;;20.10;99.90;;;;;;5035582;28;20412;-87
2022/08/31 06:08:42;;;;;;;0.70;0.20;;;20.50;99.90;;;;;;5052944;28;20423;-81
2022/08/31 06:11:14;;;;;;;0.40;0.20;;;20.70;99.90;;;;;;5051659;28;20510;-84
2022/08/31 06:13:41;;;;;;;0.70;0.20;;;21.10;99.90;;;;;;5052908;28;20423;-84
2022/08/31 06:16:07;;;;;;;0.40;0.20;;;21.60;99.90;;;;;;5052483;28;20549;-81
2022/08/31 06:18:32;;;;;;;2.40;0.40;;;21.90;99.90;;;;;;5052454;28;21132;-81
2022/08/31 06:21:07;;;;;;;0.90;0.40;;;21.60;99.90;;;;;;5053041;28;20430;-83
2022/08/31 06:23:36;;;;;;;0.60;0.20;;;22.00;92.80;;;;;;5052917;28;20168;-83
2022/08/31 06:26:08;;;;;;;0.40;0.20;;;22.60;52.60;;;;;;5053205;28;20415;-87
2022/08/31 06:28:33;;;;;;;2.00;0.30;;;22.60;56.80;;;;;;5051871;28;21089;-87
2022/08/31 06:31:01;;;;;;;0.50;0.30;;;22.60;48.70;;;;;;5051906;28;20520;-90
2022/08/31 06:33:28;;;;;;;3.30;0.33;;;22.50;46.90;;;;;;5053556;28;20783;-89
2022/08/31 06:35:54;;;;;;;1.13;0.20;;;23.00;31.90;;;;;;5052915;28;20457;-89
2022/08/31 06:38:19;;;;;;;0.70;0.20;;;23.10;29.80;;;;;;5052827;28;20535;-86
2022/08/31 06:40:45;;;;;;;0.50;0.20;;;23.40;29.50;;;;;;5053429;28;20566;-87
2022/08/31 06:43:10;;;;;;;1.00;0.20;;;23.70;28.80;;;;;;5053175;28;20174;-86
2022/08/31 06:45:39;;;;;;;0.90;0.20;;;23.60;31.20;;;;;;5053196;28;20541;-87
2022/08/31 06:48:04;;;;;;;0.77;0.20;;;23.70;17.60;;;;;;5052867;28;20177;-87
2022/08/31 06:50:30;;;;;;;0.67;0.20;;;24.00;18.50;;;;;;5056456;28;20769;-87
2022/08/31 06:52:56;;;;;;;1.33;0.20;;;23.90;18.60;;;;;;5057131;28;20162;-86
2022/08/31 06:55:22;;;;;;;0.43;0.20;;;24.50;12.90;;;;;;5057611;28;20251;-87
2022/08/31 06:57:47;;;;;;;1.40;0.30;;;24.90;13.40;;;;;;5056749;28;20202;-87
2022/08/31 07:00:13;;;;;;;0.50;0.20;;;25.10;4.10;;;;;;5057041;28;20192;-87
2022/08/31 07:02:38;;;;;;;0.60;0.20;;;25.10;4.50;;;;;;5056679;28;20714;-87
2022/08/31 07:05:04;;;;;;;0.53;0.33;;;25.70;3.60;;;;;;5056809;28;20173;-88
2022/08/31 07:07:30;;;;;;;0.87;0.20;;;25.80;1.00;;;;;;5055328;28;20180;-87
2022/08/31 07:09:56;;;;;;;1.43;0.20;;;26.10;1.00;;;;;;5054947;28;20507;-89
2022/08/31 07:12:21;;;;;;;0.40;0.20;;;26.00;1.00;;;;;;5056333;28;20177;-88
2022/08/31 07:14:47;;;;;;;0.90;0.20;;;26.10;1.00;;;;;;5054664;28;20257;-88
2022/08/31 07:17:12;;;;;;;0.60;0.20;;;26.40;1.00;;;;;;5055938;28;20211;-88
2022/08/31 07:19:38;;;;;;;1.10;0.27;;;26.20;1.00;;;;;;5056714;28;20245;-88
2022/08/31 07:22:05;;;;;;;0.40;0.20;;;26.50;1.00;;;;;;5055925;28;20169;-89
2022/08/31 07:24:34;;;;;;;0.60;0.23;;;26.50;1.00;;;;;;5056242;28;20184;-89
2022/08/31 07:27:17;;;;;;;0.50;0.20;;;26.70;1.00;;;;;;5056862;28;20412;-88
2022/08/31 07:29:42;;;;;;;0.50;0.20;;;26.50;1.00;;;;;;5056821;28;20852;-90
2022/08/31 07:32:13;;;;;;;0.70;0.20;;;27.20;1.00;;;;;;5038702;28;20436;-89
2022/08/31 07:34:39;;;;;;;0.50;0.20;;;27.70;1.00;;;;;;5057065;28;20548;-89
2022/08/31 07:42:49;;;;;;;0.80;0.80;;;27.30;1.00;;;;;;5055253;28;20493;-88
2022/08/31 07:45:20;;;;;;;0.70;0.20;;;27.40;1.00;;;;;;5055422;28;20424;-88
2022/08/31 07:47:46;;;;;;;0.50;0.20;;;27.60;1.00;;;;;;5055566;28;20865;-89
2022/08/31 07:50:14;;;;;;;0.50;0.23;;;28.00;1.00;;;;;;5056335;28;20413;-89
2022/08/31 07:52:52;;;;;;;0.40;0.20;;;28.40;1.00;;;;;;5055919;28;20762;-87
2022/08/31 07:55:20;;;;;;;0.50;0.20;;;28.30;1.00;;;;;;5055961;28;20491;-88
2022/08/31 07:57:46;;;;;;;0.70;0.20;;;28.20;1.00;;;;;;5035766;28;20405;-88
2022/08/31 08:00:16;;;;;;;0.77;0.20;;;28.00;1.00;;;;;;5035378;28;20501;-84
2022/08/31 08:02:45;;;;;;;0.50;0.20;;;28.10;1.00;;;;;;5034227;28;20205;-85
2022/08/31 08:05:19;;;;;;;0.37;0.20;;;28.40;1.00;;;;;;5035364;28;20412;-87
2022/08/31 08:07:46;;;;;;;0.53;0.20;;;29.10;1.00;;;;;;5034927;28;20453;-87
2022/08/31 08:10:12;;;;;;;0.70;0.20;;;28.70;1.00;;;;;;5017107;28;20751;-86
2022/08/31 08:12:42;;;;;;;0.70;0.20;;;28.70;1.00;;;;;;5034928;28;20421;-92
2022/08/31 08:15:09;;;;;;;0.40;0.20;;;28.30;1.00;;;;;;5046811;28;20513;-86
2022/08/31 08:17:34;;;;;;;0.60;0.20;;;28.20;1.00;;;;;;5038313;28;20428;-86
2022/08/31 08:20:00;;;;;;;0.50;0.20;;;28.70;1.00;;;;;;5050737;28;20419;-85
2022/08/31 08:22:26;;;;;;;0.40;0.20;;;28.90;1.00;;;;;;5055148;28;20227;-86
2022/08/31 08:24:53;;;;;;;0.70;0.20;;;28.70;1.00;;;;;;5054911;28;20193;-87
2022/08/31 08:27:18;;;;;;;0.40;0.20;;;28.80;1.00;;;;;;5054970;28;20173;-86
2022/08/31 08:29:44;;;;;;;0.50;0.27;;;28.90;1.00;;;;;;5055140;28;20431;-87
2022/08/31 08:32:10;;;;;;;0.60;0.23;;;29.40;1.00;;;;;;5036845;28;20176;-87
2022/08/31 08:34:40;;;;;;;0.43;0.20;;;29.80;1.00;;;;;;5036859;28;20200;-87
2022/08/31 08:37:09;;;;;;;0.60;0.30;;;29.40;1.00;;;;;;5054456;28;20508;-87
2022/08/31 08:39:35;;;;;;;0.80;0.20;;;29.50;1.00;;;;;;5054404;28;20461;-86
2022/08/31 08:42:01;;;;;;;0.40;0.20;;;29.40;1.00;;;;;;5053826;28;20907;-83
2022/08/31 08:44:34;;;;;;;0.50;0.20;;;29.70;1.00;;;;;;5053989;28;20227;-86
2022/08/31 08:47:04;;;;;;;0.40;0.20;;;29.40;1.00;;;;;;5035858;28;20456;-83
2022/08/31 08:49:45;;;;;;;0.60;0.20;;;30.40;1.00;;;;;;5053802;28;20993;-86
2022/08/31 08:52:18;;;;;;;0.47;0.20;;;30.30;1.00;;;;;;5053925;28;20412;-82
2022/08/31 08:54:46;;;;;;;0.57;0.20;;;30.20;1.00;;;;;;5054013;28;20440;-84
2022/08/31 08:57:24;;;;;;;0.50;0.20;;;29.60;1.00;;;;;;5053769;28;20863;-82
2022/08/31 08:59:54;;;;;;;0.70;0.20;;;29.80;1.00;;;;;;5053756;28;20444;-84
2022/08/31 09:02:25;;;;;;;0.40;0.20;;;30.00;1.00;;;;;;5053079;28;20408;-85
2022/08/31 09:05:10;;;;;;;0.50;0.20;;;30.10;1.00;;;;;;5053724;28;20416;-85
2022/08/31 09:08:17;;;;;;;0.93;0.20;;;30.30;1.00;;;;;;5053534;28;20412;-84
2022/08/31 09:10:54;;;;;;;0.50;0.20;;;30.90;1.00;;;;;;5053410;28;20477;-86
2022/08/31 09:13:56;;;;;;;0.80;0.20;;;30.50;1.00;;;;;;5053224;28;20986;-83
2022/08/31 09:16:37;;;;;;;0.40;0.20;;;30.80;1.00;;;;;;4988993;28;20471;-83
2022/08/31 09:19:08;;;;;;;0.50;0.20;;;32.00;1.00;;;;;;5033557;28;20530;-83
2022/08/31 09:22:01;;;;;;;0.67;0.20;;;29.50;1.00;;;;;;5032324;28;20405;-82
2022/08/31 09:24:31;;;;;;;0.40;0.23;;;30.40;1.00;;;;;;5032605;28;20421;-82
2022/08/31 09:27:16;;;;;;;0.50;0.20;;;30.80;1.00;;;;;;5033413;28;20925;-82
2022/08/31 09:29:43;;;;;;;1.03;0.20;;;28.40;1.00;;;;;;5033285;28;20465;-82
2022/08/31 09:32:15;;;;;;;0.50;0.20;;;27.50;1.00;;;;;;5033003;28;20409;-81
2022/08/31 09:34:41;;;;;;;0.60;0.20;;;26.60;1.00;;;;;;5033176;28;20417;-83
2022/08/31 09:37:24;;;;;;;1.00;0.23;;;26.60;1.00;;;;;;5031969;28;20409;-81
2022/08/31 09:39:52;;;;;;;1.07;0.20;;;29.60;1.00;;;;;;5033186;28;20425;-83
2022/08/31 09:42:30;;;;;;;0.60;0.20;;;29.10;1.00;;;;;;5033266;28;20401;-82
2022/08/31 09:45:15;;;;;;;0.40;0.20;;;27.70;1.00;;;;;;5033206;28;20425;-84
2022/08/31 09:47:51;;;;;;;0.70;0.20;;;25.30;1.00;;;;;;5032743;28;20467;-82
2022/08/31 09:50:44;;;;;;;1.00;0.30;;;24.60;1.00;;;;;;5033083;28;20563;-82
2022/08/31 09:56:19;;;;;;;0.50;0.20;;;28.90;1.00;;;;;;5033006;28;20559;-82
2022/08/31 09:58:56;;;;;;;1.80;0.20;;;28.30;1.00;;;;;;5033069;28;20455;-83
2022/08/31 10:01:43;;;;;;;0.60;0.20;;;28.10;1.00;;;;;;5032742;28;20420;-81
2022/08/31 10:04:13;;;;;;;0.50;0.20;;;28.00;1.00;;;;;;5032900;28;20971;-82
2022/08/31 10:07:10;;;;;;;0.50;0.20;;;29.70;1.00;;;;;;5032830;28;20822;-81
2022/08/31 10:09:48;;;;;;;0.83;0.20;;;30.20;1.00;;;;;;5032657;28;20472;-82
2022/08/31 10:12:21;;;;;;;1.90;0.60;;;30.50;1.00;;;;;;5032871;28;20419;-82
2022/08/31 10:14:55;;;;;;;0.40;0.20;;;30.30;1.00;;;;;;5035159;28;20405;-82
2022/08/31 10:17:30;;;;;;;0.83;0.20;;;28.30;1.00;;;;;;5052421;28;20427;-84
2022/08/31 10:20:11;;;;;;;0.47;0.20;;;29.70;1.00;;;;;;5052659;28;20431;-81
2022/08/31 10:22:51;;;;;;;0.50;0.20;;;30.30;1.00;;;;;;5052662;28;20869;-82
2022/08/31 10:25:45;;;;;;;0.40;0.20;;;30.20;1.00;;;;;;5055538;28;20404;-84
2022/08/31 10:28:19;;;;;;;0.80;0.30;;;31.10;1.00;;;;;;5056600;28;20467;-82
2022/08/31 10:30:57;;;;;;;0.50;0.20;;;28.50;1.00;;;;;;5056177;28;20414;-84
2022/08/31 10:35:01;;;;;;;0.73;0.20;;;29.80;1.00;;;;;;5056598;28;20920;-83
2022/08/31 10:36:16;;;;;;;0.50;0.20;;;30.10;1.00;;;;;;5056434;28;20935;-85
2022/08/31 10:38:45;;;;;;;0.47;0.20;;;30.80;1.00;;;;;;5056504;28;20420;-83
2022/08/31 10:41:22;;;;;;;0.50;0.20;;;31.00;1.00;;;;;;5056405;28;20444;-82
2022/08/31 10:44:07;;;;;;;0.50;0.20;;;31.50;1.00;;;;;;5055376;28;20427;-83
2022/08/31 10:46:34;;;;;;;1.10;0.30;;;31.00;1.00;;;;;;5056046;28;20428;-82
2022/08/31 10:49:03;;;;;;;1.03;0.30;;;30.70;1.00;;;;;;5056204;28;20502;-81
2022/08/31 10:51:45;;;;;;;0.50;0.20;;;30.20;1.00;;;;;;5056144;28;20412;-83
2022/08/31 10:54:27;;;;;;;1.33;0.20;;;31.00;1.00;;;;;;5038336;28;20423;-82
2022/08/31 10:57:18;;;;;;;0.53;0.20;;;31.30;1.00;;;;;;5056088;28;20411;-84
2022/08/31 10:59:49;;;;;;;1.40;0.30;;;31.50;1.00;;;;;;5056121;28;20412;-83
2022/08/31 11:02:21;;;;;;;0.60;0.20;;;31.20;1.00;;;;;;5055603;28;20418;-83
2022/08/31 11:05:17;;;;;;;0.63;0.20;;;30.80;1.00;;;;;;5055994;28;20423;-86
2022/08/31 11:08:06;;;;;;;0.50;0.20;;;30.70;1.00;;;;;;5055968;28;20462;-83
2022/08/31 11:10:53;;;;;;;0.43;0.20;;;30.60;1.00;;;;;;5055792;28;20985;-82
2022/08/31 11:13:24;;;;;;;0.60;0.27;;;31.00;1.00;;;;;;5055849;28;20423;-82
2022/08/31 11:15:59;;;;;;;0.40;0.20;;;30.70;1.00;;;;;;5037438;28;20939;-83
2022/08/31 11:18:38;;;;;;;0.40;0.20;;;30.00;1.00;;;;;;5055801;28;20416;-83
2022/08/31 11:21:33;;;;;;;0.50;0.20;;;30.20;1.00;;;;;;5037847;28;20470;-82
2022/08/31 11:24:16;;;;;;;1.47;0.50;;;29.50;1.00;;;;;;5055669;28;20462;-82
2022/08/31 11:26:45;;;;;;;0.70;0.20;;;30.00;1.00;;;;;;5055460;28;21000;-82
2022/08/31 11:29:27;;;;;;;0.50;0.20;;;30.20;1.00;;;;;;5055481;28;20472;-83
2022/08/31 11:31:56;;;;;;;0.60;0.20;;;30.70;1.00;;;;;;5055131;28;20408;-83
2022/08/31 11:34:26;;;;;;;0.50;0.20;;;30.60;1.00;;;;;;5055364;28;20416;-83
2022/08/31 11:36:59;;;;;;;0.40;0.20;;;29.50;1.00;;;;;;5055433;28;20447;-82
2022/08/31 11:39:34;;;;;;;0.50;0.20;;;28.40;1.00;;;;;;5055386;28;20404;-83
2022/08/31 11:42:38;;;;;;;0.50;0.20;;;28.00;1.00;;;;;;5055234;28;20426;-82
2022/08/31 11:45:06;;;;;;;2.00;0.30;;;28.60;1.00;;;;;;5055248;28;20542;-83
2022/08/31 11:47:35;;;;;;;0.73;0.20;;;27.10;1.00;;;;;;5036947;28;20427;-81
2022/08/31 11:50:09;;;;;;;0.50;0.20;;;26.60;1.00;;;;;;5055129;28;20454;-82
2022/08/31 11:52:42;;;;;;;0.50;0.20;;;26.20;1.00;;;;;;5055223;28;20812;-82
2022/08/31 11:55:17;;;;;;;1.10;0.20;;;25.50;1.00;;;;;;5055067;28;20420;-81
2022/08/31 11:58:08;;;;;;;0.50;0.20;;;24.90;1.00;;;;;;5054972;28;20458;-81
2022/08/31 12:00:57;;;;;;;0.60;0.33;;;24.80;1.00;;;;;;5054636;28;20842;-81
2022/08/31 12:03:51;;;;;;;0.50;0.20;;;27.00;1.00;;;;;;5054864;28;20553;-81
2022/08/31 12:06:34;;;;;;;0.40;0.20;;;28.10;1.00;;;;;;5054805;28;20408;-82
2022/08/31 12:09:35;;;;;;;1.27;0.20;;;28.30;1.00;;;;;;5054748;28;20826;-81
2022/08/31 12:12:20;;;;;;;0.40;0.20;;;27.70;1.00;;;;;;5055830;28;20817;-82
2022/08/31 12:14:55;;;;;;;0.50;0.20;;;27.30;1.00;;;;;;5057770;28;20416;-82
2022/08/31 12:17:30;;;;;;;0.70;0.20;;;25.90;1.00;;;;;;5065441;28;20451;-86
2022/08/31 12:20:07;;;;;;;0.83;0.20;;;24.80;1.00;;;;;;5066349;28;20414;-86
2022/08/31 12:26:00;;;;;;;0.50;0.20;;;26.10;1.00;;;;;;5054781;28;20411;-85
2022/08/31 12:29:06;;;;;;;1.10;0.33;;;28.10;1.00;;;;;;5054701;28;20471;-86
2022/08/31 12:31:35;;;;;;;0.50;0.27;;;29.10;1.00;;;;;;5036349;28;20911;-86
2022/08/31 12:34:17;;;;;;;1.03;0.20;;;29.50;1.00;;;;;;5054338;28;20440;-86
2022/08/31 12:36:42;;;;;;;0.47;0.20;;;29.50;1.00;;;;;;5054516;28;20416;-86
2022/08/31 12:39:10;;;;;;;0.50;0.20;;;29.60;1.00;;;;;;5054268;28;20420;-86
2022/08/31 12:41:45;;;;;;;0.30;0.20;;;28.60;1.00;;;;;;5054204;28;20619;-86
2022/08/31 12:44:17;;;;;;;0.90;0.20;;;26.80;1.00;;;;;;5054266;28;20510;-84
2022/08/31 12:46:48;;;;;;;0.50;0.20;;;26.50;1.00;;;;;;5051139;28;20417;-85
2022/08/31 12:49:30;;;;;;;0.80;0.57;;;25.70;1.00;;;;;;5035546;28;20880;-89
2022/08/31 12:52:16;;;;;;;0.43;0.20;;;25.10;1.00;;;;;;5048248;28;20427;-88
2022/08/31 12:55:12;;;;;;;0.80;0.27;;;24.60;1.00;;;;;;5030038;28;20434;-89
2022/08/31 12:58:07;;;;;;;0.40;0.20;;;24.20;1.00;;;;;;5007423;28;20900;-84
2022/08/31 13:00:38;;;;;;;0.50;0.20;;;25.20;1.00;;;;;;5033944;28;20421;-84
2022/08/31 13:03:20;;;;;;;0.70;0.20;;;26.80;1.00;;;;;;5034445;28;20480;-82
2022/08/31 13:06:12;;;;;;;1.87;0.20;;;27.80;1.00;;;;;;5041704;28;20436;-89
2022/08/31 13:08:42;;;;;;;0.50;0.20;;;28.20;1.00;;;;;;5051113;28;20467;-86
2022/08/31 13:11:16;;;;;;;0.60;0.20;;;28.40;1.00;;;;;;5043737;28;20951;-84
2022/08/31 13:13:43;;;;;;;0.40;0.20;;;28.70;1.00;;;;;;5042682;28;20426;-91
2022/08/31 13:16:11;;;;;;;0.73;0.20;;;28.50;1.00;;;;;;5026846;28;20976;-84
2022/08/31 13:18:37;;;;;;;0.70;0.20;;;28.70;1.00;;;;;;5042485;28;20416;-86
2022/08/31 13:21:07;;;;;;;0.40;0.20;;;28.10;1.00;;;;;;5046701;28;20452;-86
2022/08/31 13:23:37;;;;;;;0.60;0.20;;;27.70;1.00;;;;;;5050141;28;20453;-84
2022/08/31 13:26:21;;;;;;;0.63;0.30;;;27.80;1.00;;;;;;5025028;28;20952;-87
2022/08/31 13:28:53;;;;;;;0.97;0.30;;;26.90;1.00;;;;;;5044796;28;20821;-86
2022/08/31 13:31:23;;;;;;;0.93;0.20;;;26.60;1.00;;;;;;5041445;28;20417;-86
2022/08/31 13:33:50;;;;;;;0.63;0.20;;;25.70;1.00;;;;;;5033348;28;20432;-88